sensor_id;sensor_type;location;lat;lon;timestamp;P1;durP1;ratioP1;P2;durP2;ratioP2
5876;SDS011;2964;42.144;24.730;2023-04-24T00:01:32;12.37;;;9.00;;
5876;SDS011;2964;42.144;24.730;2023-04-24T00:04:01;9.40;;;8.47;;
5876;SDS011;2964;42.144;24.730;2023-04-24T00:06:29;12.10;;;8.83;;
5876;SDS011;2964;42.144;24.730;2023-04-24T00:08:58;10.17;;;8.13;;
5876;SDS011;2964;42.144;24.730;2023-04-24T00:11:25;12.43;;;8.70;;
5876;SDS011;2964;42.144;24.730;2023-04-24T00:13:51;9.13;;;8.37;;
5876;SDS011;2964;42.144;24.730;2023-04-24T00:16:18;9.07;;;8.30;;
5876;SDS011;2964;42.144;24.730;2023-04-24T00:18:46;9.97;;;8.30;;
5876;SDS011;2964;42.144;24.730;2023-04-24T00:21:13;8.57;;;8.00;;
5876;SDS011;2964;42.144;24.730;2023-04-24T00:23:41;8.97;;;8.17;;
5876;SDS011;2964;42.144;24.730;2023-04-24T00:26:08;9.73;;;8.80;;
5876;SDS011;2964;42.144;24.730;2023-04-24T00:28:35;9.47;;;8.63;;
5876;SDS011;2964;42.144;24.730;2023-04-24T00:31:02;10.03;;;9.20;;
5876;SDS011;2964;42.144;24.730;2023-04-24T00:33:28;10.67;;;9.77;;
5876;SDS011;2964;42.144;24.730;2023-04-24T00:35:57;9.07;;;8.37;;
5876;SDS011;2964;42.144;24.730;2023-04-24T00:38:23;11.13;;;10.13;;
5876;SDS011;2964;42.144;24.730;2023-04-24T00:40:50;16.97;;;10.33;;
5876;SDS011;2964;42.144;24.730;2023-04-24T00:43:17;10.73;;;9.07;;
5876;SDS011;2964;42.144;24.730;2023-04-24T00:45:43;13.27;;;11.13;;
5876;SDS011;2964;42.144;24.730;2023-04-24T00:48:10;16.03;;;10.47;;
5876;SDS011;2964;42.144;24.730;2023-04-24T00:50:38;23.40;;;10.60;;
5876;SDS011;2964;42.144;24.730;2023-04-24T00:53:06;17.70;;;9.40;;
5876;SDS011;2964;42.144;24.730;2023-04-24T00:55:33;11.93;;;9.53;;
5876;SDS011;2964;42.144;24.730;2023-04-24T00:58:00;10.33;;;9.40;;
5876;SDS011;2964;42.144;24.730;2023-04-24T01:00:27;23.07;;;10.20;;
5876;SDS011;2964;42.144;24.730;2023-04-24T01:02:53;12.50;;;11.17;;
5876;SDS011;2964;42.144;24.730;2023-04-24T01:05:21;11.30;;;10.20;;
5876;SDS011;2964;42.144;24.730;2023-04-24T01:07:48;14.17;;;11.37;;
5876;SDS011;2964;42.144;24.730;2023-04-24T01:10:16;13.17;;;11.70;;
5876;SDS011;2964;42.144;24.730;2023-04-24T01:12:45;12.30;;;11.10;;
5876;SDS011;2964;42.144;24.730;2023-04-24T01:15:12;11.97;;;10.87;;
5876;SDS011;2964;42.144;24.730;2023-04-24T01:17:39;13.07;;;11.83;;
5876;SDS011;2964;42.144;24.730;2023-04-24T01:20:06;15.03;;;11.87;;
5876;SDS011;2964;42.144;24.730;2023-04-24T01:22:35;14.17;;;12.10;;
5876;SDS011;2964;42.144;24.730;2023-04-24T01:25:02;14.13;;;12.73;;
5876;SDS011;2964;42.144;24.730;2023-04-24T01:27:30;13.70;;;12.20;;
5876;SDS011;2964;42.144;24.730;2023-04-24T01:29:57;13.43;;;12.13;;
5876;SDS011;2964;42.144;24.730;2023-04-24T01:32:24;14.77;;;12.07;;
5876;SDS011;2964;42.144;24.730;2023-04-24T01:34:51;15.37;;;12.97;;
5876;SDS011;2964;42.144;24.730;2023-04-24T01:37:18;13.40;;;12.10;;
5876;SDS011;2964;42.144;24.730;2023-04-24T01:39:46;17.37;;;13.00;;
5876;SDS011;2964;42.144;24.730;2023-04-24T01:42:13;16.73;;;13.27;;
5876;SDS011;2964;42.144;24.730;2023-04-24T01:44:40;24.20;;;13.20;;
5876;SDS011;2964;42.144;24.730;2023-04-24T01:47:08;26.47;;;12.40;;
5876;SDS011;2964;42.144;24.730;2023-04-24T01:49:35;21.70;;;13.33;;
5876;SDS011;2964;42.144;24.730;2023-04-24T01:52:03;17.83;;;13.60;;
5876;SDS011;2964;42.144;24.730;2023-04-24T01:54:29;16.10;;;13.13;;
5876;SDS011;2964;42.144;24.730;2023-04-24T01:56:57;22.10;;;13.00;;
5876;SDS011;2964;42.144;24.730;2023-04-24T01:59:26;12.70;;;11.50;;
5876;SDS011;2964;42.144;24.730;2023-04-24T02:01:54;14.90;;;13.27;;
5876;SDS011;2964;42.144;24.730;2023-04-24T02:04:21;15.03;;;12.90;;
5876;SDS011;2964;42.144;24.730;2023-04-24T02:06:48;14.03;;;12.57;;
5876;SDS011;2964;42.144;24.730;2023-04-24T02:09:14;13.17;;;11.73;;
5876;SDS011;2964;42.144;24.730;2023-04-24T02:11:41;13.70;;;12.30;;
5876;SDS011;2964;42.144;24.730;2023-04-24T02:14:09;17.97;;;12.60;;
5876;SDS011;2964;42.144;24.730;2023-04-24T02:16:35;13.70;;;12.30;;
5876;SDS011;2964;42.144;24.730;2023-04-24T02:19:02;13.17;;;11.87;;
5876;SDS011;2964;42.144;24.730;2023-04-24T02:21:29;13.20;;;11.97;;
5876;SDS011;2964;42.144;24.730;2023-04-24T02:23:56;14.30;;;12.80;;
5876;SDS011;2964;42.144;24.730;2023-04-24T02:26:23;13.37;;;12.23;;
5876;SDS011;2964;42.144;24.730;2023-04-24T02:28:50;16.00;;;13.43;;
5876;SDS011;2964;42.144;24.730;2023-04-24T02:31:19;14.43;;;13.17;;
5876;SDS011;2964;42.144;24.730;2023-04-24T02:33:45;13.20;;;11.80;;
5876;SDS011;2964;42.144;24.730;2023-04-24T02:36:12;13.70;;;12.50;;
5876;SDS011;2964;42.144;24.730;2023-04-24T02:38:39;13.27;;;12.17;;
5876;SDS011;2964;42.144;24.730;2023-04-24T02:41:06;15.10;;;12.57;;
5876;SDS011;2964;42.144;24.730;2023-04-24T02:43:32;13.47;;;12.37;;
5876;SDS011;2964;42.144;24.730;2023-04-24T02:45:59;16.53;;;13.33;;
5876;SDS011;2964;42.144;24.730;2023-04-24T02:48:27;14.77;;;13.33;;
5876;SDS011;2964;42.144;24.730;2023-04-24T02:50:54;16.03;;;12.80;;
5876;SDS011;2964;42.144;24.730;2023-04-24T02:53:22;13.90;;;12.70;;
5876;SDS011;2964;42.144;24.730;2023-04-24T02:55:49;13.73;;;12.43;;
5876;SDS011;2964;42.144;24.730;2023-04-24T02:58:16;14.40;;;12.93;;
5876;SDS011;2964;42.144;24.730;2023-04-24T03:00:44;14.10;;;12.73;;
5876;SDS011;2964;42.144;24.730;2023-04-24T03:03:11;13.93;;;12.23;;
5876;SDS011;2964;42.144;24.730;2023-04-24T03:05:39;13.07;;;11.60;;
5876;SDS011;2964;42.144;24.730;2023-04-24T03:08:06;17.37;;;13.43;;
5876;SDS011;2964;42.144;24.730;2023-04-24T03:10:32;13.87;;;12.53;;
5876;SDS011;2964;42.144;24.730;2023-04-24T03:12:59;14.90;;;13.47;;
5876;SDS011;2964;42.144;24.730;2023-04-24T03:15:26;15.50;;;13.53;;
5876;SDS011;2964;42.144;24.730;2023-04-24T03:17:53;14.60;;;13.17;;
5876;SDS011;2964;42.144;24.730;2023-04-24T03:20:20;14.87;;;13.43;;
5876;SDS011;2964;42.144;24.730;2023-04-24T03:22:48;13.53;;;12.17;;
5876;SDS011;2964;42.144;24.730;2023-04-24T03:25:15;20.90;;;13.70;;
5876;SDS011;2964;42.144;24.730;2023-04-24T03:27:41;16.13;;;13.30;;
5876;SDS011;2964;42.144;24.730;2023-04-24T03:30:08;15.63;;;13.57;;
5876;SDS011;2964;42.144;24.730;2023-04-24T03:32:35;15.20;;;13.57;;
5876;SDS011;2964;42.144;24.730;2023-04-24T03:35:04;17.10;;;14.27;;
5876;SDS011;2964;42.144;24.730;2023-04-24T03:37:32;24.03;;;14.20;;
5876;SDS011;2964;42.144;24.730;2023-04-24T03:40:00;16.03;;;13.33;;
5876;SDS011;2964;42.144;24.730;2023-04-24T03:42:27;15.27;;;13.73;;
5876;SDS011;2964;42.144;24.730;2023-04-24T03:44:53;20.23;;;14.30;;
5876;SDS011;2964;42.144;24.730;2023-04-24T03:47:20;24.87;;;15.17;;
5876;SDS011;2964;42.144;24.730;2023-04-24T03:49:46;19.37;;;14.87;;
5876;SDS011;2964;42.144;24.730;2023-04-24T03:52:13;19.60;;;14.33;;
5876;SDS011;2964;42.144;24.730;2023-04-24T03:54:40;23.07;;;15.43;;
5876;SDS011;2964;42.144;24.730;2023-04-24T03:57:08;20.67;;;14.53;;
5876;SDS011;2964;42.144;24.730;2023-04-24T03:59:34;19.77;;;15.90;;
5876;SDS011;2964;42.144;24.730;2023-04-24T04:02:01;18.77;;;15.27;;
5876;SDS011;2964;42.144;24.730;2023-04-24T04:04:27;22.33;;;15.43;;
5876;SDS011;2964;42.144;24.730;2023-04-24T04:06:54;16.47;;;14.77;;
5876;SDS011;2964;42.144;24.730;2023-04-24T04:09:21;17.50;;;15.70;;
5876;SDS011;2964;42.144;24.730;2023-04-24T04:11:47;18.57;;;16.60;;
5876;SDS011;2964;42.144;24.730;2023-04-24T04:14:15;17.13;;;15.33;;
5876;SDS011;2964;42.144;24.730;2023-04-24T04:16:42;21.77;;;15.03;;
5876;SDS011;2964;42.144;24.730;2023-04-24T04:19:09;15.90;;;14.20;;
5876;SDS011;2964;42.144;24.730;2023-04-24T04:21:35;19.20;;;15.30;;
5876;SDS011;2964;42.144;24.730;2023-04-24T04:24:02;16.57;;;14.90;;
5876;SDS011;2964;42.144;24.730;2023-04-24T04:26:30;21.70;;;16.53;;
5876;SDS011;2964;42.144;24.730;2023-04-24T04:28:57;17.43;;;15.33;;
5876;SDS011;2964;42.144;24.730;2023-04-24T04:31:27;17.07;;;15.27;;
5876;SDS011;2964;42.144;24.730;2023-04-24T04:33:53;22.93;;;16.27;;
5876;SDS011;2964;42.144;24.730;2023-04-24T04:36:20;22.33;;;15.37;;
5876;SDS011;2964;42.144;24.730;2023-04-24T04:38:47;19.13;;;15.30;;
5876;SDS011;2964;42.144;24.730;2023-04-24T04:41:13;26.87;;;15.90;;
5876;SDS011;2964;42.144;24.730;2023-04-24T04:43:41;16.60;;;14.93;;
5876;SDS011;2964;42.144;24.730;2023-04-24T04:46:08;17.57;;;15.67;;
5876;SDS011;2964;42.144;24.730;2023-04-24T04:48:37;19.23;;;16.00;;
5876;SDS011;2964;42.144;24.730;2023-04-24T04:51:04;19.60;;;15.13;;
5876;SDS011;2964;42.144;24.730;2023-04-24T04:53:31;17.73;;;15.93;;
5876;SDS011;2964;42.144;24.730;2023-04-24T04:55:58;33.40;;;16.67;;
5876;SDS011;2964;42.144;24.730;2023-04-24T04:58:24;23.37;;;14.83;;
5876;SDS011;2964;42.144;24.730;2023-04-24T05:00:51;21.67;;;14.70;;
5876;SDS011;2964;42.144;24.730;2023-04-24T05:03:18;28.40;;;15.00;;
5876;SDS011;2964;42.144;24.730;2023-04-24T05:05:46;22.43;;;15.03;;
5876;SDS011;2964;42.144;24.730;2023-04-24T05:08:12;18.03;;;13.57;;
5876;SDS011;2964;42.144;24.730;2023-04-24T05:10:39;22.10;;;13.53;;
5876;SDS011;2964;42.144;24.730;2023-04-24T05:13:06;20.83;;;14.33;;
5876;SDS011;2964;42.144;24.730;2023-04-24T05:15:32;22.97;;;17.13;;
5876;SDS011;2964;42.144;24.730;2023-04-24T05:17:59;14.50;;;13.20;;
5876;SDS011;2964;42.144;24.730;2023-04-24T05:20:26;19.27;;;12.33;;
5876;SDS011;2964;42.144;24.730;2023-04-24T05:22:54;22.40;;;14.80;;
5876;SDS011;2964;42.144;24.730;2023-04-24T05:25:20;28.43;;;15.67;;
5876;SDS011;2964;42.144;24.730;2023-04-24T05:27:47;19.47;;;13.50;;
5876;SDS011;2964;42.144;24.730;2023-04-24T05:30:14;14.67;;;12.40;;
5876;SDS011;2964;42.144;24.730;2023-04-24T05:32:41;19.87;;;13.47;;
5876;SDS011;2964;42.144;24.730;2023-04-24T05:35:08;15.07;;;12.80;;
5876;SDS011;2964;42.144;24.730;2023-04-24T05:37:34;16.50;;;13.47;;
5876;SDS011;2964;42.144;24.730;2023-04-24T05:40:02;13.83;;;12.50;;
5876;SDS011;2964;42.144;24.730;2023-04-24T05:42:30;15.10;;;11.97;;
5876;SDS011;2964;42.144;24.730;2023-04-24T05:44:57;15.20;;;12.53;;
5876;SDS011;2964;42.144;24.730;2023-04-24T05:47:24;16.27;;;11.90;;
5876;SDS011;2964;42.144;24.730;2023-04-24T05:49:51;19.63;;;10.97;;
5876;SDS011;2964;42.144;24.730;2023-04-24T05:52:18;16.60;;;11.23;;
5876;SDS011;2964;42.144;24.730;2023-04-24T05:54:45;13.90;;;12.40;;
5876;SDS011;2964;42.144;24.730;2023-04-24T05:57:13;14.97;;;11.63;;
5876;SDS011;2964;42.144;24.730;2023-04-24T05:59:40;16.13;;;10.27;;
5876;SDS011;2964;42.144;24.730;2023-04-24T06:02:07;18.53;;;11.77;;
5876;SDS011;2964;42.144;24.730;2023-04-24T06:04:33;15.67;;;11.40;;
5876;SDS011;2964;42.144;24.730;2023-04-24T06:07:00;16.03;;;11.33;;
5876;SDS011;2964;42.144;24.730;2023-04-24T06:09:27;18.00;;;13.87;;
5876;SDS011;2964;42.144;24.730;2023-04-24T06:11:54;13.97;;;11.83;;
5876;SDS011;2964;42.144;24.730;2023-04-24T06:14:23;18.90;;;11.33;;
5876;SDS011;2964;42.144;24.730;2023-04-24T06:16:49;14.53;;;12.30;;
5876;SDS011;2964;42.144;24.730;2023-04-24T06:19:16;13.97;;;11.87;;
5876;SDS011;2964;42.144;24.730;2023-04-24T06:21:43;14.53;;;11.30;;
5876;SDS011;2964;42.144;24.730;2023-04-24T06:24:09;16.10;;;13.27;;
5876;SDS011;2964;42.144;24.730;2023-04-24T06:26:37;19.87;;;13.83;;
5876;SDS011;2964;42.144;24.730;2023-04-24T06:29:03;15.57;;;10.37;;
5876;SDS011;2964;42.144;24.730;2023-04-24T06:31:31;17.37;;;11.30;;
5876;SDS011;2964;42.144;24.730;2023-04-24T06:34:01;18.80;;;9.93;;
5876;SDS011;2964;42.144;24.730;2023-04-24T06:36:28;12.00;;;10.73;;
5876;SDS011;2964;42.144;24.730;2023-04-24T06:38:55;11.10;;;10.00;;
5876;SDS011;2964;42.144;24.730;2023-04-24T06:41:22;11.60;;;10.33;;
5876;SDS011;2964;42.144;24.730;2023-04-24T06:43:49;12.70;;;10.37;;
5876;SDS011;2964;42.144;24.730;2023-04-24T06:46:15;10.63;;;9.63;;
5876;SDS011;2964;42.144;24.730;2023-04-24T06:48:43;11.67;;;10.63;;
5876;SDS011;2964;42.144;24.730;2023-04-24T06:51:10;13.70;;;11.80;;
5876;SDS011;2964;42.144;24.730;2023-04-24T06:53:37;13.80;;;10.50;;
5876;SDS011;2964;42.144;24.730;2023-04-24T06:56:03;11.00;;;10.10;;
5876;SDS011;2964;42.144;24.730;2023-04-24T06:58:30;13.00;;;10.67;;
5876;SDS011;2964;42.144;24.730;2023-04-24T07:00:57;15.30;;;10.50;;
5876;SDS011;2964;42.144;24.730;2023-04-24T07:03:23;14.27;;;10.13;;
5876;SDS011;2964;42.144;24.730;2023-04-24T07:05:52;11.63;;;10.33;;
5876;SDS011;2964;42.144;24.730;2023-04-24T07:08:19;14.50;;;10.23;;
5876;SDS011;2964;42.144;24.730;2023-04-24T07:10:47;12.27;;;10.47;;
5876;SDS011;2964;42.144;24.730;2023-04-24T07:13:13;11.00;;;9.73;;
5876;SDS011;2964;42.144;24.730;2023-04-24T07:15:40;10.77;;;9.87;;
5876;SDS011;2964;42.144;24.730;2023-04-24T07:18:07;13.90;;;10.40;;
5876;SDS011;2964;42.144;24.730;2023-04-24T07:20:33;11.27;;;9.63;;
5876;SDS011;2964;42.144;24.730;2023-04-24T07:23:01;11.20;;;10.13;;
5876;SDS011;2964;42.144;24.730;2023-04-24T07:25:28;9.43;;;8.65;;
5876;SDS011;2964;42.144;24.730;2023-04-24T07:27:56;19.02;;;11.65;;
5876;SDS011;2964;42.144;24.730;2023-04-24T07:30:23;12.02;;;9.90;;
5876;SDS011;2964;42.144;24.730;2023-04-24T07:32:50;15.07;;;10.90;;
5876;SDS011;2964;42.144;24.730;2023-04-24T07:35:16;13.70;;;9.73;;
5876;SDS011;2964;42.144;24.730;2023-04-24T07:37:43;10.90;;;10.02;;
5876;SDS011;2964;42.144;24.730;2023-04-24T07:40:12;13.40;;;9.90;;
5876;SDS011;2964;42.144;24.730;2023-04-24T07:42:39;11.03;;;9.33;;
5876;SDS011;2964;42.144;24.730;2023-04-24T07:45:06;11.30;;;10.23;;
5876;SDS011;2964;42.144;24.730;2023-04-24T07:47:33;12.43;;;9.63;;
5876;SDS011;2964;42.144;24.730;2023-04-24T07:50:01;20.60;;;10.43;;
5876;SDS011;2964;42.144;24.730;2023-04-24T07:52:28;10.55;;;9.55;;
5876;SDS011;2964;42.144;24.730;2023-04-24T07:54:55;10.45;;;9.43;;
5876;SDS011;2964;42.144;24.730;2023-04-24T07:57:25;10.45;;;9.73;;
5876;SDS011;2964;42.144;24.730;2023-04-24T07:59:51;10.45;;;9.55;;
5876;SDS011;2964;42.144;24.730;2023-04-24T08:02:18;16.20;;;9.63;;
5876;SDS011;2964;42.144;24.730;2023-04-24T08:04:46;13.40;;;10.07;;
5876;SDS011;2964;42.144;24.730;2023-04-24T08:07:13;13.23;;;10.18;;
5876;SDS011;2964;42.144;24.730;2023-04-24T08:09:40;13.63;;;10.32;;
5876;SDS011;2964;42.144;24.730;2023-04-24T08:12:06;11.95;;;10.63;;
5876;SDS011;2964;42.144;24.730;2023-04-24T08:14:34;11.93;;;10.77;;
5876;SDS011;2964;42.144;24.730;2023-04-24T08:17:01;12.00;;;10.93;;
5876;SDS011;2964;42.144;24.730;2023-04-24T08:19:28;14.50;;;13.10;;
5876;SDS011;2964;42.144;24.730;2023-04-24T08:21:55;13.37;;;11.40;;
5876;SDS011;2964;42.144;24.730;2023-04-24T08:24:21;15.73;;;13.43;;
5876;SDS011;2964;42.144;24.730;2023-04-24T08:26:48;11.53;;;10.60;;
5876;SDS011;2964;42.144;24.730;2023-04-24T08:29:16;18.70;;;13.83;;
5876;SDS011;2964;42.144;24.730;2023-04-24T08:31:44;11.70;;;10.77;;
5876;SDS011;2964;42.144;24.730;2023-04-24T08:34:11;11.38;;;10.27;;
5876;SDS011;2964;42.144;24.730;2023-04-24T08:36:38;14.68;;;10.45;;
5876;SDS011;2964;42.144;24.730;2023-04-24T08:39:06;11.93;;;9.75;;
5876;SDS011;2964;42.144;24.730;2023-04-24T08:41:32;14.43;;;10.02;;
5876;SDS011;2964;42.144;24.730;2023-04-24T08:44:00;12.25;;;11.30;;
5876;SDS011;2964;42.144;24.730;2023-04-24T08:46:28;10.60;;;9.57;;
5876;SDS011;2964;42.144;24.730;2023-04-24T08:48:57;11.70;;;10.70;;
5876;SDS011;2964;42.144;24.730;2023-04-24T08:51:25;12.63;;;9.27;;
5876;SDS011;2964;42.144;24.730;2023-04-24T08:53:53;11.88;;;10.23;;
5876;SDS011;2964;42.144;24.730;2023-04-24T08:56:21;12.68;;;9.75;;
5876;SDS011;2964;42.144;24.730;2023-04-24T08:58:48;10.90;;;9.65;;
5876;SDS011;2964;42.144;24.730;2023-04-24T09:01:16;14.60;;;13.07;;
5876;SDS011;2964;42.144;24.730;2023-04-24T09:03:44;13.93;;;12.38;;
5876;SDS011;2964;42.144;24.730;2023-04-24T09:06:13;12.98;;;11.52;;
5876;SDS011;2964;42.144;24.730;2023-04-24T09:08:41;12.32;;;11.30;;
5876;SDS011;2964;42.144;24.730;2023-04-24T09:11:09;12.75;;;11.55;;
5876;SDS011;2964;42.144;24.730;2023-04-24T09:13:37;14.35;;;10.50;;
5876;SDS011;2964;42.144;24.730;2023-04-24T09:16:04;10.68;;;9.73;;
5876;SDS011;2964;42.144;24.730;2023-04-24T09:18:31;10.75;;;9.70;;
5876;SDS011;2964;42.144;24.730;2023-04-24T09:20:59;11.40;;;10.30;;
5876;SDS011;2964;42.144;24.730;2023-04-24T09:23:29;11.63;;;10.45;;
5876;SDS011;2964;42.144;24.730;2023-04-24T09:25:57;11.10;;;10.18;;
5876;SDS011;2964;42.144;24.730;2023-04-24T09:28:25;12.27;;;11.13;;
5876;SDS011;2964;42.144;24.730;2023-04-24T09:31:02;11.48;;;10.27;;
5876;SDS011;2964;42.144;24.730;2023-04-24T09:33:30;11.23;;;10.18;;
5876;SDS011;2964;42.144;24.730;2023-04-24T09:35:57;14.98;;;10.70;;
5876;SDS011;2964;42.144;24.730;2023-04-24T09:38:31;12.07;;;10.98;;
5876;SDS011;2964;42.144;24.730;2023-04-24T09:41:03;13.02;;;12.00;;
5876;SDS011;2964;42.144;24.730;2023-04-24T09:43:32;11.65;;;10.57;;
5876;SDS011;2964;42.144;24.730;2023-04-24T09:46:00;11.30;;;10.50;;
5876;SDS011;2964;42.144;24.730;2023-04-24T09:48:31;11.27;;;10.20;;
5876;SDS011;2964;42.144;24.730;2023-04-24T09:50:59;17.75;;;14.68;;
5876;SDS011;2964;42.144;24.730;2023-04-24T09:53:27;13.02;;;10.75;;
5876;SDS011;2964;42.144;24.730;2023-04-24T09:55:56;12.88;;;11.23;;
5876;SDS011;2964;42.144;24.730;2023-04-24T09:58:25;13.43;;;11.65;;
5876;SDS011;2964;42.144;24.730;2023-04-24T10:00:56;15.88;;;14.52;;
5876;SDS011;2964;42.144;24.730;2023-04-24T10:03:23;13.52;;;12.35;;
5876;SDS011;2964;42.144;24.730;2023-04-24T10:05:52;16.83;;;15.35;;
5876;SDS011;2964;42.144;24.730;2023-04-24T10:08:20;12.70;;;11.65;;
5876;SDS011;2964;42.144;24.730;2023-04-24T10:10:47;13.45;;;12.15;;
5876;SDS011;2964;42.144;24.730;2023-04-24T10:13:15;13.60;;;11.13;;
5876;SDS011;2964;42.144;24.730;2023-04-24T10:15:42;11.30;;;10.40;;
5876;SDS011;2964;42.144;24.730;2023-04-24T10:18:09;14.50;;;11.73;;
5876;SDS011;2964;42.144;24.730;2023-04-24T10:20:37;14.03;;;10.67;;
5876;SDS011;2964;42.144;24.730;2023-04-24T10:23:05;11.37;;;10.47;;
5876;SDS011;2964;42.144;24.730;2023-04-24T10:25:33;13.07;;;11.97;;
5876;SDS011;2964;42.144;24.730;2023-04-24T10:28:01;14.03;;;12.70;;
5876;SDS011;2964;42.144;24.730;2023-04-24T10:30:30;13.10;;;11.77;;
5876;SDS011;2964;42.144;24.730;2023-04-24T10:33:00;15.93;;;14.47;;
5876;SDS011;2964;42.144;24.730;2023-04-24T10:35:27;12.40;;;11.30;;
5876;SDS011;2964;42.144;24.730;2023-04-24T10:37:57;20.33;;;16.03;;
5876;SDS011;2964;42.144;24.730;2023-04-24T10:40:26;16.27;;;14.80;;
5876;SDS011;2964;42.144;24.730;2023-04-24T10:42:54;15.63;;;13.03;;
5876;SDS011;2964;42.144;24.730;2023-04-24T10:45:22;12.67;;;11.03;;
5876;SDS011;2964;42.144;24.730;2023-04-24T10:50:42;13.53;;;10.93;;
5876;SDS011;2964;42.144;24.730;2023-04-24T10:53:12;10.87;;;10.07;;
5876;SDS011;2964;42.144;24.730;2023-04-24T10:55:41;10.47;;;9.60;;
5876;SDS011;2964;42.144;24.730;2023-04-24T10:58:09;11.27;;;10.17;;
5876;SDS011;2964;42.144;24.730;2023-04-24T11:00:38;10.53;;;9.73;;
5876;SDS011;2964;42.144;24.730;2023-04-24T11:03:06;11.33;;;10.37;;
5876;SDS011;2964;42.144;24.730;2023-04-24T11:05:52;11.43;;;10.53;;
5876;SDS011;2964;42.144;24.730;2023-04-24T11:08:22;10.67;;;9.67;;
5876;SDS011;2964;42.144;24.730;2023-04-24T11:10:55;10.93;;;10.00;;
5876;SDS011;2964;42.144;24.730;2023-04-24T11:13:27;11.77;;;10.57;;
5876;SDS011;2964;42.144;24.730;2023-04-24T11:16:20;12.97;;;11.70;;
5876;SDS011;2964;42.144;24.730;2023-04-24T11:18:50;10.87;;;9.97;;
5876;SDS011;2964;42.144;24.730;2023-04-24T11:21:20;9.80;;;9.20;;
5876;SDS011;2964;42.144;24.730;2023-04-24T11:23:48;12.87;;;11.73;;
5876;SDS011;2964;42.144;24.730;2023-04-24T11:26:17;10.37;;;9.67;;
5876;SDS011;2964;42.144;24.730;2023-04-24T11:28:48;9.50;;;8.90;;
5876;SDS011;2964;42.144;24.730;2023-04-24T11:31:34;10.37;;;9.57;;
5876;SDS011;2964;42.144;24.730;2023-04-24T11:34:06;10.77;;;10.03;;
5876;SDS011;2964;42.144;24.730;2023-04-24T11:36:35;9.03;;;8.43;;
5876;SDS011;2964;42.144;24.730;2023-04-24T11:39:03;9.57;;;9.00;;
5876;SDS011;2964;42.144;24.730;2023-04-24T11:41:30;8.40;;;7.90;;
5876;SDS011;2964;42.144;24.730;2023-04-24T11:43:57;9.10;;;8.60;;
5876;SDS011;2964;42.144;24.730;2023-04-24T11:46:26;9.57;;;8.30;;
5876;SDS011;2964;42.144;24.730;2023-04-24T11:48:53;10.47;;;9.60;;
5876;SDS011;2964;42.144;24.730;2023-04-24T11:51:20;9.20;;;8.53;;
5876;SDS011;2964;42.144;24.730;2023-04-24T11:53:50;8.50;;;8.00;;
5876;SDS011;2964;42.144;24.730;2023-04-24T11:56:17;10.90;;;9.93;;
5876;SDS011;2964;42.144;24.730;2023-04-24T11:58:44;14.33;;;9.40;;
5876;SDS011;2964;42.144;24.730;2023-04-24T12:01:12;10.23;;;9.37;;
5876;SDS011;2964;42.144;24.730;2023-04-24T12:03:38;10.63;;;9.83;;
5876;SDS011;2964;42.144;24.730;2023-04-24T12:06:08;11.80;;;9.07;;
5876;SDS011;2964;42.144;24.730;2023-04-24T12:08:36;9.80;;;8.17;;
5876;SDS011;2964;42.144;24.730;2023-04-24T12:11:05;11.10;;;9.17;;
5876;SDS011;2964;42.144;24.730;2023-04-24T12:13:33;10.73;;;9.87;;
5876;SDS011;2964;42.144;24.730;2023-04-24T12:16:02;10.30;;;9.20;;
5876;SDS011;2964;42.144;24.730;2023-04-24T12:18:30;8.83;;;8.33;;
5876;SDS011;2964;42.144;24.730;2023-04-24T12:23:42;12.13;;;9.97;;
5876;SDS011;2964;42.144;24.730;2023-04-24T12:26:10;10.00;;;9.10;;
5876;SDS011;2964;42.144;24.730;2023-04-24T12:28:38;10.30;;;8.47;;
5876;SDS011;2964;42.144;24.730;2023-04-24T12:31:06;10.13;;;9.33;;
5876;SDS011;2964;42.144;24.730;2023-04-24T12:33:33;9.93;;;9.23;;
5876;SDS011;2964;42.144;24.730;2023-04-24T12:36:00;8.83;;;8.10;;
5876;SDS011;2964;42.144;24.730;2023-04-24T12:38:28;8.37;;;7.63;;
5876;SDS011;2964;42.144;24.730;2023-04-24T12:41:02;8.60;;;7.73;;
5876;SDS011;2964;42.144;24.730;2023-04-24T12:43:31;9.33;;;8.70;;
5876;SDS011;2964;42.144;24.730;2023-04-24T12:45:59;9.07;;;8.40;;
5876;SDS011;2964;42.144;24.730;2023-04-24T12:48:25;8.67;;;7.87;;
5876;SDS011;2964;42.144;24.730;2023-04-24T12:50:52;9.10;;;8.40;;
5876;SDS011;2964;42.144;24.730;2023-04-24T12:53:20;9.40;;;8.70;;
5876;SDS011;2964;42.144;24.730;2023-04-24T12:55:47;8.17;;;7.37;;
5876;SDS011;2964;42.144;24.730;2023-04-24T12:58:18;8.97;;;8.23;;
5876;SDS011;2964;42.144;24.730;2023-04-24T13:00:46;8.00;;;7.43;;
5876;SDS011;2964;42.144;24.730;2023-04-24T13:03:13;8.10;;;7.50;;
5876;SDS011;2964;42.144;24.730;2023-04-24T13:05:41;8.77;;;8.03;;
5876;SDS011;2964;42.144;24.730;2023-04-24T13:08:08;15.13;;;9.10;;
5876;SDS011;2964;42.144;24.730;2023-04-24T13:10:35;9.10;;;8.37;;
5876;SDS011;2964;42.144;24.730;2023-04-24T13:13:02;9.97;;;9.27;;
5876;SDS011;2964;42.144;24.730;2023-04-24T13:15:29;10.43;;;8.77;;
5876;SDS011;2964;42.144;24.730;2023-04-24T13:17:57;9.43;;;8.73;;
5876;SDS011;2964;42.144;24.730;2023-04-24T13:20:24;9.20;;;8.13;;
5876;SDS011;2964;42.144;24.730;2023-04-24T13:22:51;8.97;;;8.37;;
5876;SDS011;2964;42.144;24.730;2023-04-24T13:25:17;9.77;;;9.07;;
5876;SDS011;2964;42.144;24.730;2023-04-24T13:27:45;8.60;;;7.87;;
5876;SDS011;2964;42.144;24.730;2023-04-24T13:30:12;9.23;;;8.27;;
5876;SDS011;2964;42.144;24.730;2023-04-24T13:32:39;8.63;;;7.73;;
5876;SDS011;2964;42.144;24.730;2023-04-24T13:35:07;8.93;;;8.20;;
5876;SDS011;2964;42.144;24.730;2023-04-24T13:37:34;13.20;;;9.77;;
5876;SDS011;2964;42.144;24.730;2023-04-24T13:40:02;10.70;;;9.83;;
5876;SDS011;2964;42.144;24.730;2023-04-24T13:42:31;14.40;;;11.57;;
5876;SDS011;2964;42.144;24.730;2023-04-24T13:44:57;8.33;;;7.83;;
5876;SDS011;2964;42.144;24.730;2023-04-24T13:47:24;8.03;;;7.43;;
5876;SDS011;2964;42.144;24.730;2023-04-24T13:49:51;10.00;;;9.07;;
5876;SDS011;2964;42.144;24.730;2023-04-24T13:52:20;7.47;;;6.83;;
5876;SDS011;2964;42.144;24.730;2023-04-24T13:54:47;8.07;;;7.67;;
5876;SDS011;2964;42.144;24.730;2023-04-24T13:57:14;8.40;;;7.80;;
5876;SDS011;2964;42.144;24.730;2023-04-24T13:59:41;9.50;;;8.80;;
5876;SDS011;2964;42.144;24.730;2023-04-24T14:02:08;8.80;;;8.10;;
5876;SDS011;2964;42.144;24.730;2023-04-24T14:04:35;7.70;;;7.00;;
5876;SDS011;2964;42.144;24.730;2023-04-24T14:07:02;10.23;;;8.57;;
5876;SDS011;2964;42.144;24.730;2023-04-24T14:09:30;8.63;;;8.03;;
5876;SDS011;2964;42.144;24.730;2023-04-24T14:11:56;9.83;;;8.90;;
5876;SDS011;2964;42.144;24.730;2023-04-24T14:14:23;9.00;;;8.13;;
5876;SDS011;2964;42.144;24.730;2023-04-24T14:16:50;9.43;;;8.73;;
5876;SDS011;2964;42.144;24.730;2023-04-24T14:19:17;7.37;;;6.87;;
5876;SDS011;2964;42.144;24.730;2023-04-24T14:21:43;8.33;;;7.83;;
5876;SDS011;2964;42.144;24.730;2023-04-24T14:24:10;8.53;;;7.80;;
5876;SDS011;2964;42.144;24.730;2023-04-24T14:26:38;8.13;;;7.60;;
5876;SDS011;2964;42.144;24.730;2023-04-24T14:29:05;8.07;;;7.50;;
5876;SDS011;2964;42.144;24.730;2023-04-24T14:31:31;7.80;;;6.97;;
5876;SDS011;2964;42.144;24.730;2023-04-24T14:33:58;8.93;;;8.13;;
5876;SDS011;2964;42.144;24.730;2023-04-24T14:36:25;9.50;;;8.70;;
5876;SDS011;2964;42.144;24.730;2023-04-24T14:38:51;8.87;;;7.93;;
5876;SDS011;2964;42.144;24.730;2023-04-24T14:41:18;8.47;;;7.87;;
5876;SDS011;2964;42.144;24.730;2023-04-24T14:43:46;10.90;;;10.00;;
5876;SDS011;2964;42.144;24.730;2023-04-24T14:46:13;7.97;;;7.47;;
5876;SDS011;2964;42.144;24.730;2023-04-24T14:48:40;9.67;;;8.07;;